Time;durP1;ratioP1;P1;durP2;ratioP2;P2;SDS_P1;SDS_P2;PMS_P1;PMS_P2;Temp;Humidity;BMP_temperature;BMP_pressure;BME280_temperature;BME280_humidity;BME280_pressure;Samples;Min_cycle;Max_cycle;Signal;HPM_P1;HPM_P2
2024/01/16 00:01:16;;;;;;;;;13.00;12.50;;;;;19.43;35.31;101168.81;6368653;22;45215;-81
2024/01/16 00:03:41;;;;;;;;;13.25;12.00;;;;;19.53;35.67;101188.00;6367720;22;45380;-82
2024/01/16 00:06:07;;;;;;;;;11.00;11.00;;;;;19.51;35.32;101185.53;6368319;22;45429;-82
2024/01/16 00:08:32;;;;;;;;;13.25;12.00;;;;;19.45;35.41;101180.03;6368077;22;47011;-82
2024/01/16 00:10:58;;;;;;;;;16.00;12.50;;;;;19.49;35.18;101187.47;6368704;22;45290;-82
2024/01/16 00:13:23;;;;;;;;;12.25;12.25;;;;;19.45;35.08;101183.50;6368368;22;45289;-81
2024/01/16 00:15:49;;;;;;;;;13.00;10.25;;;;;19.47;35.36;101189.44;6368491;22;45222;-82
2024/01/16 00:18:15;;;;;;;;;13.50;13.25;;;;;19.47;35.17;101183.34;6367593;22;46057;-83
2024/01/16 00:20:40;;;;;;;;;13.25;13.25;;;;;19.37;35.11;101170.25;6368460;22;45333;-82
2024/01/16 00:23:05;;;;;;;;;12.50;12.50;;;;;19.44;35.25;101179.19;6368388;22;45637;-82
2024/01/16 00:25:30;;;;;;;;;16.00;14.50;;;;;19.40;35.13;101170.78;6368464;22;45397;-82
2024/01/16 00:27:56;;;;;;;;;14.50;13.25;;;;;19.42;34.98;101173.25;6368383;22;45907;-82
2024/01/16 00:30:21;;;;;;;;;16.00;13.50;;;;;19.24;34.99;101147.72;6368582;22;45365;-82
2024/01/16 00:32:46;;;;;;;;;21.50;15.00;;;;;19.46;35.29;101187.81;6367911;22;45249;-82
2024/01/16 00:35:12;;;;;;;;;14.50;12.25;;;;;19.36;34.89;101160.69;6368334;22;45222;-82
2024/01/16 00:37:37;;;;;;;;;18.00;13.75;;;;;19.22;34.96;101140.94;6368456;22;45332;-82
2024/01/16 00:40:04;;;;;;;;;16.00;14.75;;;;;19.35;34.97;101170.41;6368140;22;45366;-82
2024/01/16 00:42:30;;;;;;;;;13.50;13.50;;;;;19.43;34.98;101182.00;6340033;22;45283;-81
2024/01/16 00:44:55;;;;;;;;;17.00;16.00;;;;;19.45;34.90;101186.13;6368122;22;45201;-82
2024/01/16 00:47:21;;;;;;;;;20.75;13.75;;;;;19.33;34.84;101167.09;6367472;22;46223;-82
2024/01/16 00:49:47;;;;;;;;;14.25;14.25;;;;;19.36;34.79;101169.41;6368229;22;45268;-82
2024/01/16 00:52:12;;;;;;;;;15.25;15.25;;;;;19.29;34.95;101147.25;6368619;22;45286;-81
2024/01/16 00:54:38;;;;;;;;;15.50;15.00;;;;;19.44;34.75;101167.84;6368276;22;45365;-82
2024/01/16 00:57:04;;;;;;;;;16.75;13.50;;;;;19.35;34.89;101157.22;6367938;22;46873;-81
2024/01/16 00:59:29;;;;;;;;;17.00;13.50;;;;;19.43;34.91;101168.81;6368006;22;45213;-81
2024/01/16 01:01:54;;;;;;;;;16.25;14.00;;;;;19.42;34.61;101169.78;6368128;22;45276;-82
2024/01/16 01:04:19;;;;;;;;;19.00;16.50;;;;;19.34;34.74;101154.72;6368487;22;45255;-81
2024/01/16 01:06:45;;;;;;;;;18.50;15.50;;;;;19.39;34.73;101170.91;6368285;22;45338;-82
2024/01/16 01:09:13;;;;;;;;;18.50;15.00;;;;;19.22;34.59;101143.59;6367396;22;50538;-82
2024/01/16 01:11:39;;;;;;;;;16.75;14.50;;;;;19.37;34.67;101167.59;6368195;22;45174;-82
2024/01/16 01:14:04;;;;;;;;;19.00;13.00;;;;;19.28;34.53;101153.53;6368436;22;45078;-81
2024/01/16 01:16:29;;;;;;;;;18.25;14.50;;;;;19.25;34.58;101153.84;6367102;22;46432;-82
2024/01/16 01:18:55;;;;;;;;;16.50;15.00;;;;;19.28;34.54;101169.38;6368412;22;45216;-82
2024/01/16 01:21:20;;;;;;;;;16.75;15.00;;;;;19.13;34.79;101146.13;6367838;22;45344;-82
2024/01/16 01:23:45;;;;;;;;;15.25;13.50;;;;;19.24;34.86;101162.72;6368001;22;45381;-82
2024/01/16 01:26:13;;;;;;;;;16.00;12.75;;;;;19.23;34.54;101161.88;6367906;22;45192;-81
2024/01/16 01:28:40;;;;;;;;;18.75;15.50;;;;;19.31;34.70;101179.59;6367694;22;45276;-82
2024/01/16 01:31:05;;;;;;;;;18.25;14.50;;;;;19.30;34.55;101185.88;6367540;22;45410;-82
2024/01/16 01:33:30;;;;;;;;;19.00;16.25;;;;;19.28;34.51;101183.38;6368113;22;45371;-82
2024/01/16 01:35:56;;;;;;;;;20.00;16.75;;;;;19.28;34.43;101183.38;6367886;22;55797;-82
2024/01/16 01:38:21;;;;;;;;;17.50;15.00;;;;;19.25;34.38;101191.63;6368377;22;45376;-82
2024/01/16 01:40:46;;;;;;;;;19.50;15.50;;;;;19.28;34.25;101195.75;6368016;22;45323;-82
2024/01/16 01:43:23;;;;;;;;;20.75;15.75;;;;;19.25;34.53;101191.63;6368327;22;45405;-82
2024/01/16 01:46:08;;;;;;;;;15.50;14.75;;;;;19.16;34.37;101177.47;6366918;22;46833;-82
2024/01/16 01:48:34;;;;;;;;;18.50;15.75;;;;;19.18;34.17;101175.53;6368420;22;45154;-81
2024/01/16 01:51:01;;;;;;;;;18.25;16.00;;;;;19.27;34.39;101187.00;6368397;22;45192;-82
2024/01/16 01:53:27;;;;;;;;;19.50;19.00;;;;;19.14;34.59;101160.16;6367699;22;45353;-82
2024/01/16 01:55:54;;;;;;;;;17.75;13.75;;;;;19.31;34.40;101182.22;6367315;22;46318;-82
2024/01/16 01:58:19;;;;;;;;;15.75;15.25;;;;;19.22;34.21;101169.97;6368332;22;45432;-81
2024/01/16 02:00:45;;;;;;;;;14.75;14.25;;;;;19.21;34.08;101163.84;6367222;22;45359;-82
2024/01/16 02:03:10;;;;;;;;;16.25;14.75;;;;;19.13;34.13;101155.84;6367910;22;45379;-82
2024/01/16 02:05:38;;;;;;;;;15.00;13.50;;;;;19.22;34.38;101173.44;6367822;22;45237;-83
2024/01/16 02:08:04;;;;;;;;;12.50;12.00;;;;;19.26;34.13;101171.31;6368041;22;45272;-83
2024/01/16 02:10:30;;;;;;;;;17.00;15.25;;;;;19.29;34.12;101179.75;6367913;22;45240;-83
2024/01/16 02:12:55;;;;;;;;;19.75;18.00;;;;;19.15;34.04;101157.34;6367697;22;45240;-83
2024/01/16 02:15:20;;;;;;;;;13.00;12.00;;;;;19.21;34.11;101157.75;6367207;22;45861;-82
2024/01/16 02:17:47;;;;;;;;;17.50;16.00;;;;;19.28;34.00;101172.00;6367902;22;45212;-82
2024/01/16 02:20:13;;;;;;;;;17.25;14.25;;;;;19.25;34.18;101159.94;6367948;22;45300;-82
2024/01/16 02:22:41;;;;;;;;;14.50;11.25;;;;;19.21;34.38;101161.22;6367811;22;45757;-82
2024/01/16 02:25:07;;;;;;;;;18.25;15.75;;;;;19.19;33.95;101150.00;6367723;22;46195;-82
2024/01/16 02:27:32;;;;;;;;;15.75;14.75;;;;;19.31;33.89;101165.59;6338778;22;45274;-82
2024/01/16 02:29:57;;;;;;;;;18.50;15.75;;;;;19.14;33.94;101133.78;6366304;22;51779;-82
2024/01/16 02:32:23;;;;;;;;;20.00;16.50;;;;;19.32;33.96;101159.31;6367683;22;45164;-82
2024/01/16 02:34:48;;;;;;;;;19.25;15.50;;;;;19.29;33.86;101155.19;6367368;22;45384;-82
2024/01/16 02:37:13;;;;;;;;;14.50;14.25;;;;;19.21;33.99;101140.13;6367669;22;47143;-82
2024/01/16 02:39:39;;;;;;;;;19.00;16.50;;;;;19.23;33.82;101137.34;6367882;22;45195;-82
2024/01/16 02:42:05;;;;;;;;;18.50;14.75;;;;;19.22;33.90;101135.69;6367585;22;45142;-82
2024/01/16 02:44:30;;;;;;;;;17.25;16.25;;;;;19.18;33.61;101132.50;6367109;22;46076;-82
2024/01/16 02:46:56;;;;;;;;;16.00;15.00;;;;;19.24;33.67;101142.47;6367047;22;45252;-82
2024/01/16 02:49:21;;;;;;;;;19.00;17.00;;;;;19.21;33.84;101139.28;6338988;22;45184;-82
2024/01/16 02:51:46;;;;;;;;;15.50;14.00;;;;;18.91;33.77;101089.44;6367639;22;45200;-82
2024/01/16 02:54:12;;;;;;;;;22.50;16.00;;;;;19.21;33.83;101139.28;6367072;22;47164;-82
2024/01/16 02:56:37;;;;;;;;;17.75;15.75;;;;;19.11;33.58;101120.88;6367532;22;45129;-81
2024/01/16 02:59:02;;;;;;;;;15.75;15.00;;;;;19.13;33.82;101121.56;6368217;22;45229;-82
2024/01/16 03:01:27;;;;;;;;;21.00;16.25;;;;;19.14;33.88;101118.78;6368920;22;45146;-82
2024/01/16 03:03:53;;;;;;;;;18.25;16.50;;;;;19.18;33.86;101124.59;6367827;22;51133;-82
2024/01/16 03:06:25;;;;;;;;;17.75;16.00;;;;;19.18;33.70;101124.59;6368707;22;45367;-82
2024/01/16 03:08:51;;;;;;;;;17.75;16.50;;;;;19.12;33.90;101104.94;6368889;22;45278;-83
2024/01/16 03:11:17;;;;;;;;;16.75;16.25;;;;;19.17;33.72;101129.03;6369002;22;45499;-83
2024/01/16 03:13:43;;;;;;;;;17.00;15.25;;;;;18.70;33.87;101059.78;6368332;22;45188;-83
2024/01/16 03:16:09;;;;;;;;;20.75;16.50;;;;;19.16;33.90;101119.44;6368250;22;45352;-82
2024/01/16 03:18:35;;;;;;;;;19.00;16.50;;;;;19.16;33.75;101108.06;6369027;22;45247;-82
2024/01/16 03:21:01;;;;;;;;;23.50;19.25;;;;;19.20;34.08;101117.38;6368429;22;45233;-82
2024/01/16 03:23:26;;;;;;;;;20.50;17.50;;;;;19.14;33.58;101096.84;6368052;22;47327;-82
2024/01/16 03:25:51;;;;;;;;;16.50;14.25;;;;;19.21;33.39;101111.09;6368023;22;60716;-82
2024/01/16 03:28:17;;;;;;;;;25.50;19.00;;;;;19.21;33.60;101119.00;6368643;22;45339;-82
2024/01/16 03:30:42;;;;;;;;;17.50;16.50;;;;;19.16;33.45;101113.34;6368625;22;45237;-82
2024/01/16 03:33:07;;;;;;;;;17.75;16.50;;;;;19.14;33.59;101116.16;6368099;22;46288;-82
2024/01/16 03:35:33;;;;;;;;;19.25;17.00;;;;;19.05;33.63;101106.50;6368207;22;45235;-82
2024/01/16 03:37:58;;;;;;;;;16.00;16.00;;;;;19.17;33.52;101128.19;6368992;22;45196;-82
2024/01/16 03:40:24;;;;;;;;;17.50;17.00;;;;;19.06;33.43;101106.38;6368707;22;45397;-82
2024/01/16 03:42:49;;;;;;;;;20.75;19.00;;;;;19.16;33.63;101122.09;6367724;22;47069;-82
2024/01/16 03:45:15;;;;;;;;;17.50;14.25;;;;;19.17;33.74;101117.66;6368218;22;45348;-82
2024/01/16 03:47:40;;;;;;;;;20.00;17.00;;;;;19.18;33.40;101104.31;6368464;22;45262;-82
2024/01/16 03:50:06;;;;;;;;;20.25;16.00;;;;;19.07;33.41;101086.91;6368733;22;45103;-82
2024/01/16 03:52:31;;;;;;;;;16.75;16.00;;;;;18.88;33.34;101055.47;6367908;22;47130;-82
2024/01/16 03:54:56;;;;;;;;;19.25;17.00;;;;;19.11;33.35;101098.00;6368244;22;56708;-82
2024/01/16 03:57:22;;;;;;;;;21.00;17.25;;;;;19.20;33.24;101103.34;6367908;22;45133;-81
2024/01/16 03:59:47;;;;;;;;;22.00;17.25;;;;;19.03;33.47;101077.66;6368334;22;45490;-82
2024/01/16 04:02:12;;;;;;;;;18.00;16.75;;;;;19.22;33.54;101102.22;6368067;22;46244;-82
2024/01/16 04:04:38;;;;;;;;;15.75;14.75;;;;;19.23;33.31;101103.06;6368707;22;45438;-82
2024/01/16 04:07:03;;;;;;;;;20.25;17.25;;;;;19.22;33.19;101096.09;6368623;22;45374;-82
2024/01/16 04:09:29;;;;;;;;;17.25;15.75;;;;;19.22;33.18;101102.22;6368204;22;45510;-82
2024/01/16 04:11:54;;;;;;;;;22.50;16.75;;;;;19.21;33.39;101094.44;6367693;22;47532;-83
2024/01/16 04:14:20;;;;;;;;;18.50;16.00;;;;;19.21;33.19;101092.63;6368597;22;45302;-82
2024/01/16 04:16:45;;;;;;;;;21.75;18.25;;;;;19.16;33.41;101084.31;6369196;22;45307;-82
2024/01/16 04:19:11;;;;;;;;;15.75;15.25;;;;;19.18;33.31;101087.66;6368748;22;45340;-83
2024/01/16 04:21:37;;;;;;;;;19.00;17.00;;;;;19.17;32.85;101084.19;6367971;22;46823;-83
2024/01/16 04:24:02;;;;;;;;;21.50;17.75;;;;;19.17;33.26;101086.00;6368287;22;46007;-82
2024/01/16 04:26:28;;;;;;;;;21.50;19.50;;;;;19.09;33.02;101068.31;6367820;22;45335;-83
2024/01/16 04:28:53;;;;;;;;;18.50;16.00;;;;;19.11;33.20;101076.88;6368830;22;45429;-82
2024/01/16 04:31:19;;;;;;;;;16.50;15.75;;;;;19.15;33.19;101080.06;6339376;22;59502;-82
2024/01/16 04:33:44;;;;;;;;;17.25;15.25;;;;;19.15;33.11;101077.41;6368207;22;45255;-82
2024/01/16 04:36:10;;;;;;;;;19.50;16.75;;;;;18.96;33.22;101047.63;6367895;22;45286;-82
2024/01/16 04:38:35;;;;;;;;;17.00;17.00;;;;;19.14;33.02;101079.22;6368333;22;45264;-80
2024/01/16 04:41:04;;;;;;;;;18.50;16.75;;;;;19.03;33.16;101059.19;6368067;22;46873;-82
2024/01/16 04:43:30;;;;;;;;;15.75;15.75;;;;;19.00;33.41;101050.75;6368428;22;45271;-82
2024/01/16 04:45:55;;;;;;;;;18.25;16.50;;;;;18.98;33.01;101045.66;6368459;22;45231;-82
2024/01/16 04:48:20;;;;;;;;;18.75;16.75;;;;;18.92;32.98;101038.34;6368154;22;45219;-82
2024/01/16 04:50:46;;;;;;;;;19.50;18.00;;;;;19.01;33.32;101041.88;6367885;22;46813;-82
2024/01/16 04:53:11;;;;;;;;;17.00;14.00;;;;;19.06;33.23;101050.16;6367281;22;45327;-82
2024/01/16 04:55:36;;;;;;;;;20.00;17.00;;;;;19.07;33.20;101063.16;6368123;22;45233;-82
2024/01/16 04:58:02;;;;;;;;;17.25;16.25;;;;;19.15;32.78;101077.41;6339494;22;50451;-82
2024/01/16 05:00:27;;;;;;;;;19.00;17.50;;;;;19.09;32.94;101065.66;6368038;22;46925;-82
2024/01/16 05:02:53;;;;;;;;;17.00;16.25;;;;;19.15;33.00;101064.22;6368292;22;45342;-82
2024/01/16 05:05:18;;;;;;;;;20.00;16.00;;;;;19.13;32.87;101063.53;6368503;22;45304;-83
2024/01/16 05:07:44;;;;;;;;;19.75;17.00;;;;;19.12;32.87;101065.38;6367993;22;45295;-82
2024/01/16 05:10:13;;;;;;;;;15.75;14.50;;;;;19.13;32.95;101058.25;6368100;22;47244;-83
2024/01/16 05:12:42;;;;;;;;;18.50;15.00;;;;;18.97;32.92;101033.44;6339582;22;45379;-82
2024/01/16 05:15:08;;;;;;;;;16.25;16.25;;;;;19.12;33.04;101053.97;6368386;22;45337;-82
2024/01/16 05:17:34;;;;;;;;;20.75;16.75;;;;;18.95;33.01;101032.75;6368232;22;45271;-83
2024/01/16 05:20:00;;;;;;;;;16.00;14.00;;;;;19.00;32.62;101042.84;6367544;22;47392;-82
2024/01/16 05:22:25;;;;;;;;;20.75;16.75;;;;;19.05;33.06;101041.41;6367786;22;45257;-83
2024/01/16 05:24:51;;;;;;;;;20.25;18.75;;;;;18.98;32.76;101029.81;6340144;22;45316;-82
2024/01/16 05:27:16;;;;;;;;;15.50;15.25;;;;;19.04;32.66;101037.13;6368059;22;45515;-82
2024/01/16 05:29:41;;;;;;;;;21.25;18.00;;;;;19.12;32.74;101040.78;6367662;22;46135;-82
2024/01/16 05:32:07;;;;;;;;;19.50;16.75;;;;;18.99;32.84;101030.66;6368450;22;45246;-82
2024/01/16 05:34:32;;;;;;;;;20.00;17.25;;;;;19.14;32.91;101036.19;6368017;22;45402;-82
2024/01/16 05:36:57;;;;;;;;;19.75;16.25;;;;;18.80;32.93;100977.97;6367434;22;45288;-82
2024/01/16 05:39:23;;;;;;;;;18.25;16.75;;;;;19.10;32.93;101026.94;6339403;22;56039;-82
2024/01/16 05:41:48;;;;;;;;;24.50;15.75;;;;;19.15;32.84;101040.50;6367443;22;62415;-82
2024/01/16 05:44:13;;;;;;;;;19.25;17.50;;;;;19.02;32.62;101015.34;6368002;22;45372;-82
2024/01/16 05:46:38;;;;;;;;;21.25;18.50;;;;;19.14;32.79;101042.28;6367344;22;47341;-82
2024/01/16 05:49:04;;;;;;;;;20.75;17.25;;;;;18.86;32.91;100991.53;6367313;22;63436;-82
2024/01/16 05:51:29;;;;;;;;;18.00;15.75;;;;;19.13;32.50;101037.16;6367209;22;45303;-82
2024/01/16 05:53:55;;;;;;;;;19.00;18.75;;;;;19.04;32.53;101034.50;6367775;22;45264;-82
2024/01/16 05:56:21;;;;;;;;;20.50;19.75;;;;;19.09;32.43;101035.81;6367988;22;45403;-82
2024/01/16 05:58:46;;;;;;;;;20.50;16.25;;;;;19.01;32.86;101011.06;6367650;22;45286;-82
2024/01/16 06:01:14;;;;;;;;;17.50;16.25;;;;;19.09;32.80;101022.63;6367678;22;45350;-83
2024/01/16 06:03:40;;;;;;;;;16.75;15.50;;;;;19.03;32.42;101022.28;6367740;22;45213;-82
2024/01/16 06:06:07;;;;;;;;;19.25;16.00;;;;;19.10;32.53;101024.31;6367018;22;45192;-83
2024/01/16 06:08:32;;;;;;;;;20.75;17.00;;;;;18.73;32.54;100969.88;6367424;22;46349;-83
2024/01/16 06:10:58;;;;;;;;;20.75;19.25;;;;;19.09;32.47;101020.00;6367951;22;45226;-82
2024/01/16 06:13:23;;;;;;;;;15.75;13.25;;;;;18.94;32.46;101005.56;6367521;22;50562;-82
2024/01/16 06:15:48;;;;;;;;;18.25;16.00;;;;;19.04;32.51;101016.03;6367588;22;45543;-83
2024/01/16 06:18:14;;;;;;;;;19.25;15.25;;;;;19.10;32.35;101017.19;6367781;22;46488;-82
2024/01/16 06:20:39;;;;;;;;;16.50;16.25;;;;;19.11;32.65;101028.56;6367398;22;46157;-83
2024/01/16 06:23:04;;;;;;;;;17.75;15.75;;;;;19.11;32.47;101021.50;6367568;22;45320;-81
2024/01/16 06:25:30;;;;;;;;;19.25;17.25;;;;;19.10;32.69;101027.75;6367641;22;45384;-81
2024/01/16 06:27:55;;;;;;;;;16.00;15.25;;;;;19.03;32.83;101014.38;6367802;22;45555;-83
2024/01/16 06:30:21;;;;;;;;;25.00;20.00;;;;;18.96;32.66;101000.16;6366692;22;53677;-82
2024/01/16 06:32:48;;;;;;;;;17.00;15.25;;;;;19.09;32.48;101012.09;6368890;22;45244;-82
2024/01/16 06:35:13;;;;;;;;;16.75;15.75;;;;;18.97;32.66;101006.25;6368103;22;45263;-82
2024/01/16 06:37:39;;;;;;;;;14.75;14.00;;;;;18.94;32.57;101010.84;6368135;22;46149;-82
2024/01/16 06:40:05;;;;;;;;;21.00;18.00;;;;;19.07;32.44;101028.88;6368657;22;45241;-82
2024/01/16 06:42:31;;;;;;;;;20.00;20.00;;;;;18.73;32.38;100975.16;6368788;22;45264;-82
2024/01/16 06:44:56;;;;;;;;;23.75;16.50;;;;;19.01;32.46;101028.69;6369095;22;45414;-81
2024/01/16 06:47:23;;;;;;;;;19.00;17.75;;;;;19.06;32.49;101040.44;6368349;22;45277;-83
2024/01/16 06:49:49;;;;;;;;;15.25;14.00;;;;;19.07;32.42;101046.53;6368199;22;45254;-82
2024/01/16 06:52:14;;;;;;;;;20.25;18.25;;;;;18.93;32.77;101022.38;6368501;22;45295;-82
2024/01/16 06:54:39;;;;;;;;;16.75;15.25;;;;;18.90;32.36;101021.84;6369357;22;45321;-82
2024/01/16 06:57:05;;;;;;;;;18.00;16.50;;;;;19.04;32.52;101031.03;6368190;22;45917;-82
2024/01/16 06:59:30;;;;;;;;;17.50;16.00;;;;;19.03;32.37;101035.47;6340702;22;45217;-84
2024/01/16 07:01:55;;;;;;;;;19.25;18.50;;;;;19.04;32.37;101025.75;6369145;22;45269;-79
2024/01/16 07:04:21;;;;;;;;;20.00;16.75;;;;;19.01;32.34;101026.88;6339913;22;45284;-84
2024/01/16 07:06:47;;;;;;;;;17.50;16.50;;;;;19.05;32.42;101028.22;6368253;22;53302;-79
2024/01/16 07:09:12;;;;;;;;;18.50;16.25;;;;;18.99;32.77;101004.28;6368221;22;45283;-84
2024/01/16 07:11:42;;;;;;;;;17.00;14.25;;;;;18.82;32.58;100980.44;6370787;22;45276;-88
2024/01/16 07:14:07;;;;;;;;;17.00;15.75;;;;;19.01;32.51;100997.88;6370358;22;45223;-93
2024/01/16 07:16:33;;;;;;;;;15.75;15.75;;;;;19.02;33.06;100994.25;6341298;22;46187;-93
2024/01/16 07:18:58;;;;;;;;;19.50;17.25;;;;;19.13;32.87;101010.78;6368667;22;45323;-81
2024/01/16 07:21:24;;;;;;;;;16.75;16.25;;;;;18.97;33.20;100985.97;6368963;22;45260;-82
2024/01/16 07:23:49;;;;;;;;;16.00;15.25;;;;;19.00;32.75;100985.66;6368233;22;45430;-79
2024/01/16 07:26:16;;;;;;;;;19.25;19.00;;;;;19.05;32.95;100991.28;6368913;22;46378;-81
2024/01/16 07:28:41;;;;;;;;;20.50;15.50;;;;;19.07;33.00;100994.59;6368140;22;45528;-81
2024/01/16 07:31:07;;;;;;;;;13.50;12.50;;;;;19.19;33.02;101012.84;6327692;22;45771;-81
2024/01/16 07:33:32;;;;;;;;;16.75;15.50;;;;;19.20;33.15;101017.13;6363361;22;45475;-82
2024/01/16 07:35:58;;;;;;;;;19.00;17.50;;;;;18.92;33.08;100968.00;6364890;22;45338;-82
2024/01/16 07:38:23;;;;;;;;;18.25;15.75;;;;;19.11;32.98;100992.50;6366780;22;45351;-80
2024/01/16 07:40:49;;;;;;;;;20.00;19.25;;;;;19.00;33.34;100975.13;6366093;22;45274;-81
2024/01/16 07:43:14;;;;;;;;;16.00;16.00;;;;;19.15;33.02;101006.19;6365074;22;45355;-81
2024/01/16 07:45:39;;;;;;;;;17.75;16.50;;;;;19.19;33.18;101004.94;6365517;22;46471;-82
2024/01/16 07:48:05;;;;;;;;;18.00;15.75;;;;;19.11;32.97;100989.00;6366053;22;45376;-82
2024/01/16 07:50:30;;;;;;;;;18.50;15.00;;;;;19.16;32.86;101003.41;6366300;22;45226;-82
2024/01/16 07:52:55;;;;;;;;;21.25;17.00;;;;;19.10;33.12;100990.03;6366547;22;45512;-82
2024/01/16 07:55:21;;;;;;;;;16.75;16.75;;;;;19.12;33.07;100988.88;6365680;22;46409;-82
2024/01/16 07:57:46;;;;;;;;;18.25;16.25;;;;;19.22;32.96;101009.06;6366170;22;45301;-81
2024/01/16 08:00:12;;;;;;;;;19.25;17.25;;;;;18.61;32.75;100913.94;6366429;22;45612;-81
2024/01/16 08:02:37;;;;;;;;;22.00;19.50;;;;;19.06;32.84;100984.22;6365813;22;45561;-81
2024/01/16 08:05:04;;;;;;;;;20.00;17.25;;;;;19.22;32.96;101006.41;6366493;22;46656;-81
2024/01/16 08:07:29;;;;;;;;;15.75;15.00;;;;;19.21;32.81;101007.38;6366778;22;45357;-80
2024/01/16 08:09:55;;;;;;;;;17.25;16.50;;;;;18.92;33.10;100975.91;6367116;22;45695;-81
2024/01/16 08:12:20;;;;;;;;;17.50;15.75;;;;;19.21;32.83;101017.94;6366682;22;45459;-85
2024/01/16 08:14:45;;;;;;;;;17.00;16.50;;;;;18.68;32.78;100937.06;6367537;22;45297;-79
2024/01/16 08:17:11;;;;;;;;;17.50;16.00;;;;;19.10;32.88;101003.22;6367527;22;45349;-78
2024/01/16 08:19:36;;;;;;;;;19.50;18.00;;;;;19.21;32.95;101016.13;6368006;22;45290;-79
2024/01/16 08:22:02;;;;;;;;;20.00;17.50;;;;;18.96;32.89;100973.78;6367865;22;45397;-79
2024/01/16 08:24:28;;;;;;;;;19.00;17.75;;;;;19.22;32.71;101014.34;6368308;22;46305;-79
2024/01/16 08:26:53;;;;;;;;;20.00;17.00;;;;;19.22;32.83;101019.59;6367912;22;45392;-79
2024/01/16 08:29:18;;;;;;;;;19.50;19.00;;;;;19.00;32.94;100988.31;6368371;22;45287;-79
2024/01/16 08:31:43;;;;;;;;;17.00;15.75;;;;;19.17;33.01;101017.41;6367500;22;45200;-79
2024/01/16 08:34:09;;;;;;;;;14.25;14.25;;;;;19.22;32.59;101025.72;6367582;22;46549;-79
2024/01/16 08:36:34;;;;;;;;;20.75;18.50;;;;;19.22;32.92;101009.88;6367133;22;56300;-80
2024/01/16 08:38:59;;;;;;;;;23.00;16.25;;;;;19.05;32.95;100979.91;6368324;22;45178;-79
2024/01/16 08:41:25;;;;;;;;;22.25;18.75;;;;;19.24;32.92;101004.44;6368242;22;45169;-77
2024/01/16 08:43:50;;;;;;;;;22.00;20.50;;;;;19.24;32.96;100994.72;6367072;22;55012;-77
2024/01/16 08:46:16;;;;;;;;;19.00;17.25;;;;;19.22;32.63;100994.06;6367317;22;45624;-79
2024/01/16 08:48:41;;;;;;;;;21.25;18.75;;;;;18.97;32.47;100954.31;6367821;22;45196;-79
2024/01/16 08:51:11;;;;;;;;;21.50;17.50;;;;;19.16;32.91;100992.84;6368478;22;45360;-79
2024/01/16 08:53:37;;;;;;;;;20.75;18.25;;;;;19.21;32.81;100989.75;6366998;22;47046;-79
2024/01/16 08:56:02;;;;;;;;;16.00;16.00;;;;;19.32;32.60;101011.56;6367415;22;45382;-79
2024/01/16 08:58:28;;;;;;;;;23.00;21.00;;;;;19.28;32.49;100995.25;6368265;22;45425;-79
2024/01/16 09:00:53;;;;;;;;;22.50;18.00;;;;;19.35;32.77;101000.72;6367352;22;45221;-79
2024/01/16 09:03:18;;;;;;;;;15.50;15.00;;;;;19.36;32.57;100999.75;6367037;22;57198;-79
2024/01/16 09:05:44;;;;;;;;;17.00;14.75;;;;;19.23;32.43;100976.44;6367734;22;55039;-79
2024/01/16 09:08:09;;;;;;;;;22.50;19.25;;;;;19.39;32.93;100997.59;6367850;22;45296;-80
2024/01/16 09:10:34;;;;;;;;;12.00;9.25;;;;;19.35;32.77;100987.53;6367907;22;45233;-78
2024/01/16 09:13:00;;;;;;;;;18.00;16.00;;;;;19.32;32.55;100980.75;6367566;22;53584;-79
2024/01/16 09:15:25;;;;;;;;;19.75;17.25;;;;;19.44;32.57;100996.31;6367726;22;45355;-79
2024/01/16 09:17:50;;;;;;;;;20.00;17.25;;;;;19.41;32.55;100997.44;6367970;22;45224;-79
2024/01/16 09:20:17;;;;;;;;;20.00;19.75;;;;;19.24;32.70;100967.50;6367900;22;45232;-79
2024/01/16 09:22:42;;;;;;;;;18.50;15.75;;;;;19.36;32.27;100978.63;6367541;22;47262;-79
2024/01/16 09:25:07;;;;;;;;;18.25;16.00;;;;;19.49;32.62;100999.28;6367852;22;45206;-79
2024/01/16 09:27:33;;;;;;;;;18.25;17.50;;;;;19.46;32.64;100981.13;6368172;22;45253;-79
2024/01/16 09:29:58;;;;;;;;;25.75;17.50;;;;;19.38;32.73;100966.09;6338979;22;45762;-78
2024/01/16 09:32:23;;;;;;;;;16.50;15.75;;;;;19.45;32.69;100977.66;6367664;22;46953;-79
2024/01/16 09:34:49;;;;;;;;;19.50;17.75;;;;;19.40;32.52;100970.22;6367924;22;45371;-79
2024/01/16 09:37:14;;;;;;;;;20.25;16.25;;;;;19.45;32.64;100976.84;6367467;22;45327;-79
2024/01/16 09:39:41;;;;;;;;;19.75;17.25;;;;;19.56;32.64;100983.63;6367415;22;45484;-79
2024/01/16 09:42:06;;;;;;;;;17.00;16.00;;;;;19.56;32.56;100978.34;6367882;22;45865;-79
2024/01/16 09:44:34;;;;;;;;;18.75;18.50;;;;;19.46;32.51;100960.03;6367326;22;45307;-79
2024/01/16 09:47:01;;;;;;;;;20.75;18.25;;;;;19.58;32.67;100976.38;6339575;22;45249;-79
2024/01/16 09:49:29;;;;;;;;;18.25;17.00;;;;;19.41;32.66;100949.94;6367426;22;45442;-79
2024/01/16 09:51:54;;;;;;;;;18.50;16.25;;;;;19.56;32.52;100978.34;6367612;22;46052;-79
2024/01/16 09:54:20;;;;;;;;;22.75;20.50;;;;;19.59;32.75;100988.59;6367287;22;45319;-78
2024/01/16 09:56:50;;;;;;;;;22.50;17.75;;;;;19.56;32.75;100976.56;6364975;22;45261;-79
2024/01/16 09:59:20;;;;;;;;;19.50;16.50;;;;;19.61;32.80;100987.47;6336628;22;45458;-79
2024/01/16 10:01:48;;;;;;;;;16.00;15.00;;;;;19.48;32.69;100977.34;6336904;22;46088;-79
2024/01/16 10:04:13;;;;;;;;;22.25;19.50;;;;;19.42;32.64;100956.88;6365962;22;45501;-79
2024/01/16 10:06:39;;;;;;;;;20.00;18.00;;;;;19.61;32.55;100983.97;6364980;22;45359;-79
2024/01/16 10:09:04;;;;;;;;;20.50;19.25;;;;;19.67;32.59;100987.81;6365966;22;45210;-79
2024/01/16 10:11:30;;;;;;;;;18.50;16.75;;;;;19.48;32.59;100953.59;6364728;22;56230;-79
2024/01/16 10:13:58;;;;;;;;;16.50;15.50;;;;;19.68;32.66;100974.44;6365290;22;45491;-79
2024/01/16 10:16:57;;;;;;;;;13.00;12.50;;;;;19.68;32.57;100961.22;6365911;22;45397;-79
2024/01/16 10:19:22;;;;;;;;;18.00;16.00;;;;;19.56;32.46;100947.53;6365599;22;45347;-80
2024/01/16 10:21:48;;;;;;;;;14.25;14.00;;;;;19.66;32.75;100962.38;6365147;22;46006;-79
2024/01/16 10:24:13;;;;;;;;;18.25;16.00;;;;;19.64;32.70;100970.47;6364705;22;45426;-80
2024/01/16 10:26:38;;;;;;;;;20.75;18.25;;;;;19.67;32.89;100964.84;6365031;22;45447;-77
2024/01/16 10:29:06;;;;;;;;;19.00;17.00;;;;;19.49;32.73;100942.03;6366008;22;45357;-77
2024/01/16 10:31:32;;;;;;;;;17.00;17.00;;;;;19.71;32.96;100968.84;6364960;22;47265;-79
2024/01/16 10:33:57;;;;;;;;;19.50;16.75;;;;;19.71;32.93;100971.47;6364949;22;45297;-79
2024/01/16 10:36:25;;;;;;;;;20.75;16.25;;;;;19.53;32.74;100939.91;6365154;22;45319;-79
2024/01/16 10:38:57;;;;;;;;;19.50;18.75;;;;;19.59;32.62;100943.72;6365060;22;45372;-80
2024/01/16 10:41:25;;;;;;;;;15.25;15.25;;;;;19.75;32.88;100963.25;6364277;22;47243;-80
2024/01/16 10:44:07;;;;;;;;;21.75;17.75;;;;;19.51;33.01;100929.53;6364944;22;45386;-79
2024/01/16 10:46:32;;;;;;;;;21.25;16.75;;;;;19.68;33.10;100953.31;6365102;22;45383;-79
2024/01/16 10:49:00;;;;;;;;;19.00;16.50;;;;;19.64;33.00;100949.34;6335966;22;45554;-79
2024/01/16 10:51:27;;;;;;;;;16.00;16.00;;;;;19.76;32.76;100965.69;6336667;22;46045;-78
2024/01/16 10:53:58;;;;;;;;;18.75;18.25;;;;;19.77;32.79;100962.09;6364584;22;45525;-79
2024/01/16 10:56:24;;;;;;;;;19.00;15.25;;;;;19.62;32.87;100936.31;6364517;22;45402;-79
2024/01/16 10:59:11;;;;;;;;;19.75;16.00;;;;;19.67;32.93;100943.72;6365467;22;45493;-79
2024/01/16 11:01:38;;;;;;;;;20.25;15.25;;;;;19.55;32.96;100923.91;6364713;22;46421;-79
2024/01/16 11:04:05;;;;;;;;;14.75;14.75;;;;;19.57;32.92;100925.41;6364503;22;45847;-80